Time;durP1;ratioP1;P1;durP2;ratioP2;P2;SDS_P1;SDS_P2;PMS_P1;PMS_P2;Temp;Humidity;BMP_temperature;BMP_pressure;BME280_temperature;BME280_humidity;BME280_pressure;Samples;Min_cycle;Max_cycle;Signal;HPM_P1;HPM_P2
2023/07/17 00:01:35;;;;;;;12.90;3.00;;;16.60;99.90;;;;;;5076563;28;20059;-81
2023/07/17 00:04:01;;;;;;;17.42;3.20;;;16.60;99.90;;;;;;5065959;28;20059;-81
2023/07/17 00:06:27;;;;;;;12.00;3.22;;;16.60;99.90;;;;;;5055292;28;20134;-81
2023/07/17 00:08:52;;;;;;;14.57;3.38;;;16.60;99.90;;;;;;5054082;28;20082;-80
2023/07/17 00:11:18;;;;;;;17.02;3.42;;;16.60;99.90;;;;;;5054845;28;20159;-80
2023/07/17 00:13:44;;;;;;;11.93;3.40;;;16.50;99.90;;;;;;5051695;28;20040;-80
2023/07/17 00:16:09;;;;;;;12.60;3.30;;;16.50;99.90;;;;;;5043151;28;20028;-80
2023/07/17 00:18:35;;;;;;;14.05;3.42;;;16.60;99.90;;;;;;5072920;28;20032;-80
2023/07/17 00:21:02;;;;;;;13.20;3.75;;;16.60;99.90;;;;;;5078332;28;20033;-80
2023/07/17 00:23:28;;;;;;;13.77;3.40;;;16.60;99.90;;;;;;5042726;28;20048;-80
2023/07/17 00:25:53;;;;;;;13.20;3.85;;;16.60;99.90;;;;;;5069036;28;20033;-80
2023/07/17 00:28:19;;;;;;;12.98;3.30;;;16.60;99.90;;;;;;5070724;28;20232;-80
2023/07/17 00:30:45;;;;;;;12.05;3.35;;;16.60;99.90;;;;;;5029915;28;20140;-80
2023/07/17 00:33:11;;;;;;;12.52;3.67;;;16.60;99.90;;;;;;5019571;28;20255;-80
2023/07/17 00:35:37;;;;;;;12.82;3.40;;;16.60;99.90;;;;;;5013052;28;20060;-80
2023/07/17 00:38:03;;;;;;;13.52;3.58;;;16.70;99.90;;;;;;5026240;28;20340;-80
2023/07/17 00:40:30;;;;;;;11.07;3.38;;;16.70;99.90;;;;;;5035163;28;20065;-80
2023/07/17 00:42:59;;;;;;;14.05;3.47;;;16.70;99.90;;;;;;5036836;28;20279;-80
2023/07/17 00:45:30;;;;;;;14.65;3.53;;;16.70;99.90;;;;;;5011303;28;20045;-80
2023/07/17 00:47:57;;;;;;;13.82;3.60;;;16.70;99.90;;;;;;5036023;28;20029;-81
2023/07/17 00:50:23;;;;;;;12.68;3.75;;;16.70;99.90;;;;;;5034116;28;20029;-81
2023/07/17 00:52:49;;;;;;;8.88;3.05;;;16.70;99.90;;;;;;5038781;28;20307;-81
2023/07/17 00:55:15;;;;;;;12.15;3.42;;;16.60;99.90;;;;;;5020082;28;20030;-81
2023/07/17 00:57:41;;;;;;;12.00;3.53;;;16.60;99.90;;;;;;5005114;28;20051;-82
2023/07/17 01:00:08;;;;;;;14.85;3.20;;;16.50;99.90;;;;;;5018184;28;20277;-82
2023/07/17 01:02:37;;;;;;;10.15;2.80;;;16.50;99.90;;;;;;5017252;28;20050;-82
2023/07/17 01:05:03;;;;;;;9.63;2.70;;;16.50;99.90;;;;;;5034755;28;20318;-83
2023/07/17 01:07:29;;;;;;;10.35;2.88;;;16.40;99.90;;;;;;5019203;28;20187;-82
2023/07/17 01:09:55;;;;;;;8.25;2.83;;;16.30;99.90;;;;;;5018121;28;20029;-82
2023/07/17 01:12:20;;;;;;;10.48;2.80;;;16.20;99.90;;;;;;5017651;28;20041;-82
2023/07/17 01:14:47;;;;;;;8.65;2.35;;;16.20;99.90;;;;;;5036167;28;20044;-81
2023/07/17 01:17:13;;;;;;;10.13;2.45;;;16.20;99.90;;;;;;5019128;28;20187;-81
2023/07/17 01:19:38;;;;;;;10.63;2.58;;;16.10;99.90;;;;;;5019654;28;20087;-81
2023/07/17 01:22:19;;;;;;;10.20;2.60;;;16.10;99.90;;;;;;5036697;28;20029;-81
2023/07/17 01:24:45;;;;;;;10.80;2.80;;;16.00;99.90;;;;;;5014542;28;20260;-81
2023/07/17 01:27:12;;;;;;;10.82;2.95;;;16.00;99.90;;;;;;5026774;28;20095;-81
2023/07/17 01:29:38;;;;;;;12.00;2.95;;;15.90;99.90;;;;;;5014429;28;20109;-81
2023/07/17 01:32:04;;;;;;;10.75;2.90;;;15.90;99.90;;;;;;5016775;28;20021;-81
2023/07/17 01:34:30;;;;;;;11.20;3.03;;;15.90;99.90;;;;;;5017818;28;20081;-81
2023/07/17 01:36:55;;;;;;;9.15;3.15;;;15.90;99.90;;;;;;5035824;28;20050;-81
2023/07/17 01:39:21;;;;;;;10.77;3.13;;;15.90;99.90;;;;;;5008786;28;20030;-81
2023/07/17 01:41:47;;;;;;;11.80;2.70;;;15.30;99.90;;;;;;5016778;28;20061;-81
2023/07/17 01:44:12;;;;;;;14.02;3.40;;;15.90;99.90;;;;;;5020147;28;20097;-81
2023/07/17 01:46:38;;;;;;;10.52;2.83;;;15.90;99.90;;;;;;5001071;28;20032;-81
2023/07/17 01:49:04;;;;;;;10.20;3.05;;;15.90;99.90;;;;;;5034371;28;20033;-81
2023/07/17 01:51:30;;;;;;;12.70;3.30;;;15.90;99.90;;;;;;5034426;28;20045;-81
2023/07/17 01:53:55;;;;;;;10.55;2.95;;;15.90;99.90;;;;;;4987672;28;20041;-81
2023/07/17 01:56:21;;;;;;;12.27;3.50;;;15.90;99.90;;;;;;5018577;28;20206;-81
2023/07/17 01:58:47;;;;;;;11.52;3.13;;;15.90;99.90;;;;;;4988465;28;20036;-80
2023/07/17 02:01:12;;;;;;;11.02;3.20;;;15.90;99.90;;;;;;5034242;28;20277;-81
2023/07/17 02:03:38;;;;;;;10.48;3.15;;;15.90;99.90;;;;;;5009715;28;20072;-81
2023/07/17 02:06:06;;;;;;;10.85;2.90;;;15.90;99.90;;;;;;4986701;28;20250;-81
2023/07/17 02:08:32;;;;;;;10.23;2.80;;;15.90;99.90;;;;;;5016550;28;20050;-81
2023/07/17 02:10:57;;;;;;;10.50;3.40;;;15.90;99.90;;;;;;5033406;28;20029;-81
2023/07/17 02:13:23;;;;;;;10.63;3.05;;;15.90;99.90;;;;;;5002485;28;20183;-80
2023/07/17 02:15:49;;;;;;;12.57;3.47;;;15.90;99.90;;;;;;5019434;28;20060;-80
2023/07/17 02:18:15;;;;;;;12.82;3.35;;;15.90;99.90;;;;;;5016422;28;20053;-80
2023/07/17 02:20:41;;;;;;;11.02;2.95;;;15.90;99.90;;;;;;5018244;28;20025;-80
2023/07/17 02:23:06;;;;;;;9.95;2.95;;;15.90;99.90;;;;;;5035159;28;20117;-81
2023/07/17 02:25:32;;;;;;;11.48;3.25;;;15.80;99.90;;;;;;5035777;28;20163;-81
2023/07/17 02:27:58;;;;;;;10.95;2.70;;;15.80;99.90;;;;;;5029305;28;20048;-81
2023/07/17 02:30:24;;;;;;;11.82;3.40;;;15.80;99.90;;;;;;5008999;28;20108;-81
2023/07/17 02:32:49;;;;;;;11.50;3.03;;;15.80;99.90;;;;;;5016793;28;20172;-80
2023/07/17 02:35:15;;;;;;;11.05;3.45;;;15.80;99.90;;;;;;4984130;28;20026;-80
2023/07/17 02:37:41;;;;;;;12.52;3.20;;;15.80;99.90;;;;;;5018478;28;20109;-80
2023/07/17 02:40:10;;;;;;;12.48;3.33;;;15.80;99.90;;;;;;5025928;28;20041;-80
2023/07/17 02:42:37;;;;;;;10.93;2.80;;;15.80;99.90;;;;;;5019218;28;20280;-80
2023/07/17 02:45:03;;;;;;;10.27;3.25;;;15.70;99.90;;;;;;5018538;28;20029;-80
2023/07/17 02:47:29;;;;;;;9.13;2.97;;;15.70;99.90;;;;;;5001972;28;20052;-81
2023/07/17 02:49:55;;;;;;;9.82;2.97;;;15.70;99.90;;;;;;5013209;28;20097;-80
2023/07/17 02:52:21;;;;;;;10.45;3.03;;;15.70;99.90;;;;;;5003240;28;20044;-80
2023/07/17 02:54:46;;;;;;;12.02;3.10;;;15.60;99.90;;;;;;5010415;28;20037;-81
2023/07/17 02:57:13;;;;;;;11.70;3.15;;;15.60;99.90;;;;;;5003270;28;20063;-80
2023/07/17 02:59:39;;;;;;;8.52;2.72;;;15.60;99.90;;;;;;5014915;28;20096;-80
2023/07/17 03:02:05;;;;;;;11.02;3.15;;;15.60;99.90;;;;;;5013312;28;20042;-80
2023/07/17 03:04:31;;;;;;;10.65;3.17;;;15.50;99.90;;;;;;5017706;28;20314;-81
2023/07/17 03:06:57;;;;;;;11.05;3.00;;;15.50;99.90;;;;;;5012950;28;20160;-80
2023/07/17 03:09:23;;;;;;;11.20;2.83;;;15.50;99.90;;;;;;5012947;28;20281;-80
2023/07/17 03:11:49;;;;;;;11.05;2.70;;;15.50;99.90;;;;;;5033596;28;20057;-81
2023/07/17 03:14:14;;;;;;;9.50;2.83;;;15.50;99.90;;;;;;5012343;28;20046;-80
2023/07/17 03:16:40;;;;;;;9.70;3.08;;;15.50;99.90;;;;;;4995894;28;20029;-81
2023/07/17 03:19:06;;;;;;;10.68;3.53;;;15.50;99.90;;;;;;5008991;28;20045;-80
2023/07/17 03:21:32;;;;;;;9.05;2.70;;;15.40;99.90;;;;;;5009973;28;20045;-81
2023/07/17 03:23:58;;;;;;;10.73;2.85;;;15.40;99.90;;;;;;5030049;28;20051;-80
2023/07/17 03:26:24;;;;;;;9.90;2.85;;;15.40;99.90;;;;;;5019942;28;20105;-81
2023/07/17 03:28:49;;;;;;;8.95;2.97;;;15.40;99.90;;;;;;5017301;28;20060;-81
2023/07/17 03:31:15;;;;;;;11.13;3.03;;;15.40;99.90;;;;;;5012715;28;20056;-80
2023/07/17 03:33:41;;;;;;;9.80;2.80;;;15.40;99.90;;;;;;5018051;28;20064;-81
2023/07/17 03:36:06;;;;;;;11.15;2.70;;;15.40;99.90;;;;;;5021935;28;20025;-80
2023/07/17 03:38:32;;;;;;;11.18;3.35;;;15.40;99.90;;;;;;5033192;28;20037;-81
2023/07/17 03:40:58;;;;;;;9.75;3.00;;;15.40;99.90;;;;;;4992225;28;20024;-80
2023/07/17 03:43:23;;;;;;;12.52;2.92;;;15.40;99.90;;;;;;5013293;28;20306;-80
2023/07/17 03:45:52;;;;;;;9.82;2.75;;;15.30;99.90;;;;;;5006892;28;20034;-80
2023/07/17 03:48:18;;;;;;;10.15;2.60;;;15.40;99.90;;;;;;5035587;28;20030;-81
2023/07/17 03:50:44;;;;;;;10.90;2.90;;;15.30;99.90;;;;;;5011904;28;20238;-80
2023/07/17 03:53:10;;;;;;;9.57;3.05;;;15.30;99.90;;;;;;5004947;28;20037;-81
2023/07/17 03:55:38;;;;;;;11.43;3.42;;;15.30;99.90;;;;;;5020321;28;20040;-80
2023/07/17 03:58:06;;;;;;;11.07;3.00;;;15.30;99.90;;;;;;5006496;28;20180;-80
2023/07/17 04:00:32;;;;;;;12.55;2.85;;;15.30;99.90;;;;;;5032735;28;20033;-80
2023/07/17 04:02:57;;;;;;;8.63;2.63;;;15.30;99.90;;;;;;5001313;28;20080;-80
2023/07/17 04:05:23;;;;;;;12.73;3.05;;;15.30;99.90;;;;;;5037298;28;20095;-80
2023/07/17 04:07:49;;;;;;;12.50;3.17;;;15.30;99.90;;;;;;5001645;28;20037;-80
2023/07/17 04:10:14;;;;;;;11.55;3.30;;;15.30;99.90;;;;;;5021305;28;20085;-80
2023/07/17 04:12:40;;;;;;;9.27;2.95;;;15.30;99.90;;;;;;5008645;28;20083;-80
2023/07/17 04:15:06;;;;;;;9.23;2.97;;;15.30;99.90;;;;;;5014873;28;20029;-80
2023/07/17 04:17:32;;;;;;;10.63;2.80;;;15.30;99.90;;;;;;5009347;28;20050;-80
2023/07/17 04:19:58;;;;;;;9.88;2.95;;;15.30;99.90;;;;;;5017853;28;20075;-80
2023/07/17 04:22:23;;;;;;;15.15;3.33;;;15.30;99.90;;;;;;5020730;28;20045;-81
2023/07/17 04:24:49;;;;;;;10.13;2.88;;;15.30;99.90;;;;;;5015953;28;20041;-81
2023/07/17 04:27:15;;;;;;;10.32;3.00;;;15.40;99.90;;;;;;5039058;28;20326;-81
2023/07/17 04:29:40;;;;;;;12.95;3.00;;;15.40;99.90;;;;;;5004526;28;20033;-81
2023/07/17 04:32:07;;;;;;;15.55;3.25;;;15.40;99.90;;;;;;5019387;28;20073;-80
2023/07/17 04:34:32;;;;;;;11.98;3.10;;;15.40;99.90;;;;;;5034910;28;20046;-80
2023/07/17 04:36:58;;;;;;;14.15;3.30;;;15.50;99.90;;;;;;5010470;28;20792;-80
2023/07/17 04:39:24;;;;;;;8.90;2.85;;;15.50;99.90;;;;;;5024713;28;20045;-80
2023/07/17 04:41:52;;;;;;;11.40;3.17;;;15.60;99.90;;;;;;5016936;28;20021;-80
2023/07/17 04:44:17;;;;;;;13.23;3.40;;;15.60;99.90;;;;;;5033525;28;20291;-80
2023/07/17 04:46:43;;;;;;;11.13;3.10;;;15.70;99.90;;;;;;4997598;28;20037;-80
2023/07/17 04:49:09;;;;;;;10.32;3.08;;;15.70;99.90;;;;;;5035918;28;20301;-80
2023/07/17 04:51:35;;;;;;;12.77;3.00;;;15.80;99.90;;;;;;5018532;28;20044;-81
2023/07/17 04:54:01;;;;;;;10.48;3.00;;;15.80;99.90;;;;;;5035401;28;20033;-80
2023/07/17 04:56:26;;;;;;;12.80;3.47;;;15.90;99.90;;;;;;5014160;28;20041;-81
2023/07/17 04:58:52;;;;;;;10.85;3.28;;;15.90;99.90;;;;;;5005246;28;20030;-80
2023/07/17 05:01:18;;;;;;;11.65;3.20;;;16.00;99.90;;;;;;5001465;28;20030;-80
2023/07/17 05:03:44;;;;;;;12.80;3.45;;;16.00;99.90;;;;;;5030556;28;20052;-80
2023/07/17 05:06:10;;;;;;;11.75;2.92;;;16.00;99.90;;;;;;5011106;28;20353;-81
2023/07/17 05:08:35;;;;;;;11.18;3.53;;;16.10;99.90;;;;;;5019572;28;20092;-81
2023/07/17 05:11:05;;;;;;;12.95;3.70;;;16.10;99.90;;;;;;5034844;28;20065;-81
2023/07/17 05:13:31;;;;;;;12.43;3.50;;;16.20;99.90;;;;;;5018353;28;20120;-81
2023/07/17 05:15:56;;;;;;;10.18;3.13;;;16.20;99.90;;;;;;5035815;28;20025;-81
2023/07/17 05:18:22;;;;;;;11.52;3.25;;;16.30;99.90;;;;;;5034662;28;20307;-81
2023/07/17 05:20:50;;;;;;;12.18;3.30;;;16.30;99.90;;;;;;5033415;28;20096;-80
2023/07/17 05:23:16;;;;;;;13.88;3.83;;;16.40;99.90;;;;;;5033967;28;20183;-81
2023/07/17 05:25:57;;;;;;;11.27;3.15;;;16.40;99.90;;;;;;5032390;28;20131;-80
2023/07/17 05:28:24;;;;;;;12.05;3.10;;;16.50;99.90;;;;;;5033808;28;20037;-81
2023/07/17 05:30:53;;;;;;;10.70;3.45;;;16.50;99.90;;;;;;5036194;28;20037;-81
2023/07/17 05:33:20;;;;;;;14.98;3.42;;;16.60;99.90;;;;;;5034225;28;20211;-81
2023/07/17 05:35:46;;;;;;;13.52;3.70;;;16.60;99.90;;;;;;5005353;28;20247;-80
2023/07/17 05:38:11;;;;;;;13.15;3.05;;;16.70;99.90;;;;;;5012055;28;20037;-81
2023/07/17 05:40:39;;;;;;;12.85;3.05;;;16.70;99.90;;;;;;5011429;28;20030;-81
2023/07/17 05:43:05;;;;;;;10.80;2.88;;;16.70;99.90;;;;;;5007120;28;20029;-81
2023/07/17 05:45:31;;;;;;;11.05;3.25;;;16.80;99.90;;;;;;5030051;28;20040;-80
2023/07/17 05:47:56;;;;;;;12.60;3.47;;;16.80;99.90;;;;;;5034155;28;20057;-81
2023/07/17 05:50:22;;;;;;;9.55;2.85;;;16.90;99.90;;;;;;5028915;28;20068;-81
2023/07/17 05:52:49;;;;;;;13.43;3.08;;;16.90;99.90;;;;;;5041746;28;20191;-81
2023/07/17 05:55:15;;;;;;;11.20;3.40;;;17.00;99.90;;;;;;5025408;28;20041;-81
2023/07/17 05:57:41;;;;;;;12.02;3.53;;;17.00;99.90;;;;;;5027259;28;20060;-81
2023/07/17 06:00:12;;;;;;;10.02;3.30;;;17.10;99.90;;;;;;5031774;28;20259;-81
2023/07/17 06:02:39;;;;;;;14.18;3.67;;;17.20;99.90;;;;;;5035101;28;20046;-81
2023/07/17 06:05:05;;;;;;;12.80;3.70;;;17.30;99.90;;;;;;5021986;28;20034;-81
2023/07/17 06:07:33;;;;;;;14.40;3.80;;;17.20;99.90;;;;;;5023259;28;20068;-80
2023/07/17 06:09:59;;;;;;;10.98;3.35;;;17.20;99.90;;;;;;5015290;28;20064;-81
2023/07/17 06:12:24;;;;;;;11.63;3.80;;;17.10;99.90;;;;;;5013963;28;20021;-81
2023/07/17 06:14:50;;;;;;;14.20;3.80;;;17.20;99.90;;;;;;5024707;28;20139;-80
2023/07/17 06:17:16;;;;;;;11.30;3.47;;;17.30;99.90;;;;;;5013180;28;20029;-81
2023/07/17 06:19:43;;;;;;;12.25;4.03;;;17.40;99.90;;;;;;4998792;28;20084;-81
2023/07/17 06:22:08;;;;;;;10.70;3.22;;;17.50;99.90;;;;;;5031956;28;20041;-81
2023/07/17 06:24:34;;;;;;;12.00;3.83;;;17.50;99.90;;;;;;5034172;28;20133;-80
2023/07/17 06:27:00;;;;;;;13.43;4.15;;;17.60;99.90;;;;;;5014204;28;20049;-80
2023/07/17 06:29:26;;;;;;;12.93;3.88;;;17.70;99.90;;;;;;5028452;28;20033;-81
2023/07/17 06:31:52;;;;;;;13.10;3.50;;;17.80;99.90;;;;;;5003867;28;20025;-81
2023/07/17 06:34:18;;;;;;;12.57;4.22;;;17.80;99.90;;;;;;5027787;28;20083;-81
2023/07/17 06:36:45;;;;;;;12.18;4.20;;;17.90;99.90;;;;;;5008423;28;20046;-80
2023/07/17 06:39:10;;;;;;;12.00;4.30;;;18.00;99.90;;;;;;5036348;28;20287;-81
2023/07/17 06:41:36;;;;;;;13.63;4.70;;;18.10;99.90;;;;;;5036065;28;20060;-80
2023/07/17 06:44:02;;;;;;;17.17;5.05;;;18.20;99.90;;;;;;5013545;28;20040;-80
2023/07/17 06:46:27;;;;;;;12.35;4.22;;;18.20;99.90;;;;;;5018008;28;20029;-81
2023/07/17 06:48:53;;;;;;;15.23;4.35;;;18.20;99.90;;;;;;5009253;28;20075;-81
2023/07/17 06:51:19;;;;;;;16.85;4.65;;;18.20;99.90;;;;;;4987434;28;20304;-82
2023/07/17 06:53:45;;;;;;;12.68;4.15;;;18.20;99.90;;;;;;5033969;28;20089;-81
2023/07/17 06:56:11;;;;;;;12.82;4.18;;;18.30;99.90;;;;;;5018089;28;20053;-81
2023/07/17 06:58:37;;;;;;;12.35;4.45;;;18.30;99.90;;;;;;5024427;28;20037;-81
2023/07/17 07:01:03;;;;;;;13.25;4.28;;;18.40;99.90;;;;;;5011700;28;20068;-80
2023/07/17 07:03:29;;;;;;;13.27;4.43;;;18.40;99.90;;;;;;5013500;28;20101;-80
2023/07/17 07:06:01;;;;;;;12.25;3.90;;;18.50;99.90;;;;;;5032502;28;20048;-81
2023/07/17 07:08:29;;;;;;;12.18;4.07;;;18.60;99.90;;;;;;5030094;28;20064;-81
2023/07/17 07:10:56;;;;;;;13.73;4.30;;;18.70;99.90;;;;;;5013632;28;20106;-80
2023/07/17 07:13:23;;;;;;;16.95;4.57;;;18.80;99.90;;;;;;5029433;28;20044;-80
2023/07/17 07:15:50;;;;;;;18.88;4.68;;;18.80;99.90;;;;;;5019908;28;20037;-81
2023/07/17 07:18:19;;;;;;;11.90;4.47;;;18.70;99.90;;;;;;5030916;28;20218;-80
2023/07/17 07:20:47;;;;;;;14.07;4.30;;;18.60;99.90;;;;;;5032221;28;20045;-81
2023/07/17 07:23:13;;;;;;;15.88;4.53;;;18.60;99.90;;;;;;5029864;28;20132;-81
2023/07/17 07:25:39;;;;;;;10.73;3.97;;;18.60;99.90;;;;;;4998864;28;20079;-80
2023/07/17 07:28:05;;;;;;;13.45;4.60;;;18.50;99.90;;;;;;5014015;28;20054;-81
2023/07/17 07:30:31;;;;;;;14.43;4.65;;;18.50;99.90;;;;;;5010642;28;20034;-81
2023/07/17 07:32:57;;;;;;;16.23;4.03;;;18.50;99.90;;;;;;5028140;28;20210;-80
2023/07/17 07:35:23;;;;;;;12.82;4.63;;;18.40;99.90;;;;;;5010444;28;20083;-80
2023/07/17 07:37:49;;;;;;;13.68;3.60;;;18.20;99.90;;;;;;5010516;28;20290;-82
2023/07/17 07:40:15;;;;;;;12.82;4.00;;;18.00;99.90;;;;;;5014423;28;20029;-83
2023/07/17 07:42:41;;;;;;;10.95;3.33;;;17.70;99.90;;;;;;5034247;28;20064;-83
2023/07/17 07:45:09;;;;;;;10.65;3.35;;;17.50;99.90;;;;;;5010073;28;20057;-82
2023/07/17 07:47:35;;;;;;;11.80;3.20;;;17.30;99.90;;;;;;5015169;28;20199;-83
2023/07/17 07:50:01;;;;;;;11.90;3.22;;;17.20;99.90;;;;;;5014559;28;20056;-82
2023/07/17 07:52:27;;;;;;;12.20;3.35;;;17.10;99.90;;;;;;5012985;28;20072;-82
2023/07/17 07:54:53;;;;;;;11.15;3.22;;;17.10;99.90;;;;;;5014287;28;20045;-82
2023/07/17 07:57:19;;;;;;;8.93;3.30;;;17.00;99.90;;;;;;5029870;28;20311;-82
2023/07/17 07:59:45;;;;;;;9.95;3.38;;;16.90;99.90;;;;;;5026833;28;20044;-81
2023/07/17 08:02:11;;;;;;;11.18;3.53;;;16.90;99.90;;;;;;5009882;28;20045;-82
2023/07/17 08:04:37;;;;;;;11.63;3.45;;;16.90;99.90;;;;;;5030863;28;20096;-82
2023/07/17 08:07:04;;;;;;;10.43;3.78;;;16.90;99.90;;;;;;4999310;28;20037;-82
2023/07/17 08:09:30;;;;;;;11.18;3.65;;;16.90;99.90;;;;;;5019981;28;20061;-82
2023/07/17 08:11:56;;;;;;;12.00;3.90;;;17.00;99.90;;;;;;5030812;28;20060;-81
2023/07/17 08:14:22;;;;;;;10.90;3.95;;;17.10;99.90;;;;;;5032868;28;20248;-81
2023/07/17 08:16:49;;;;;;;12.00;3.88;;;17.20;99.90;;;;;;5012146;28;20048;-82
2023/07/17 08:19:16;;;;;;;11.63;4.20;;;17.30;99.90;;;;;;5033571;28;20066;-81
2023/07/17 08:21:42;;;;;;;12.38;3.72;;;17.40;99.90;;;;;;5013430;28;20226;-82
2023/07/17 08:24:08;;;;;;;15.32;4.90;;;17.60;99.90;;;;;;5039014;28;20153;-82
2023/07/17 08:26:33;;;;;;;12.57;4.10;;;17.90;99.90;;;;;;5006293;28;20045;-82
2023/07/17 08:29:03;;;;;;;13.05;4.20;;;18.20;99.90;;;;;;5017763;28;20041;-81
2023/07/17 08:31:31;;;;;;;11.55;4.15;;;18.60;99.90;;;;;;5023988;28;20029;-82
2023/07/17 08:33:57;;;;;;;12.77;4.53;;;18.60;99.90;;;;;;5038310;28;20046;-82
2023/07/17 08:36:23;;;;;;;12.75;4.30;;;18.90;99.90;;;;;;5001210;28;20255;-81
2023/07/17 08:38:49;;;;;;;12.15;3.47;;;19.10;99.90;;;;;;5034464;28;20205;-81
2023/07/17 08:41:14;;;;;;;13.23;3.97;;;19.10;99.90;;;;;;5016808;28;20038;-81
2023/07/17 08:43:41;;;;;;;13.38;4.20;;;19.30;99.90;;;;;;5037436;28;20032;-82
2023/07/17 08:46:08;;;;;;;13.52;4.13;;;19.40;99.90;;;;;;5035367;28;21060;-82
2023/07/17 08:48:34;;;;;;;10.82;4.07;;;19.50;99.90;;;;;;5036624;28;20210;-81
2023/07/17 08:51:00;;;;;;;13.65;3.95;;;19.50;99.90;;;;;;5037091;28;20049;-82
2023/07/17 08:53:27;;;;;;;10.20;3.60;;;19.70;99.90;;;;;;5034959;28;20117;-82
2023/07/17 08:55:54;;;;;;;10.90;3.40;;;19.90;99.90;;;;;;5036372;28;20029;-82
2023/07/17 08:58:22;;;;;;;14.50;4.18;;;20.20;99.90;;;;;;5034511;28;20037;-81
2023/07/17 09:00:50;;;;;;;11.38;3.80;;;20.60;99.90;;;;;;5028332;28;20033;-82
2023/07/17 09:03:17;;;;;;;10.07;3.17;;;20.60;99.90;;;;;;5026515;28;20034;-81
2023/07/17 09:05:43;;;;;;;12.90;3.97;;;20.70;99.90;;;;;;5012684;28;20049;-81
2023/07/17 09:08:11;;;;;;;10.73;3.42;;;20.70;99.90;;;;;;4999338;28;20256;-81
2023/07/17 09:10:37;;;;;;;12.25;3.55;;;20.70;99.90;;;;;;5029819;28;20286;-81
2023/07/17 09:13:04;;;;;;;8.68;3.28;;;20.80;99.90;;;;;;4998357;28;20255;-81
2023/07/17 09:15:32;;;;;;;12.50;3.88;;;20.80;99.90;;;;;;5034867;28;20148;-81
2023/07/17 09:17:57;;;;;;;10.70;3.60;;;20.70;99.90;;;;;;5034365;28;20045;-81
2023/07/17 09:20:23;;;;;;;9.82;3.58;;;20.60;99.90;;;;;;5029674;28;20101;-80
2023/07/17 09:22:53;;;;;;;10.13;3.28;;;20.70;99.90;;;;;;5031554;28;20319;-81
2023/07/17 09:25:19;;;;;;;10.55;3.30;;;20.70;99.90;;;;;;5032503;28;20053;-81
2023/07/17 09:27:49;;;;;;;12.75;3.20;;;20.50;99.90;;;;;;5019855;28;20045;-81
2023/07/17 09:30:17;;;;;;;10.57;3.10;;;20.20;99.90;;;;;;5015404;28;20092;-81
2023/07/17 09:32:43;;;;;;;9.35;3.28;;;20.00;99.90;;;;;;5021798;28;20076;-81
2023/07/17 09:35:12;;;;;;;8.93;2.70;;;20.20;99.90;;;;;;5010498;28;20038;-82
2023/07/17 09:37:44;;;;;;;10.32;3.03;;;20.50;99.90;;;;;;5017783;28;20187;-81
2023/07/17 09:40:11;;;;;;;10.77;2.90;;;20.70;99.90;;;;;;5037615;28;20049;-81
2023/07/17 09:42:38;;;;;;;10.57;2.80;;;20.80;99.90;;;;;;5020176;28;20034;-81
2023/07/17 09:45:05;;;;;;;10.55;3.15;;;20.90;99.90;;;;;;5030567;28;20049;-80
2023/07/17 09:47:34;;;;;;;8.02;2.60;;;21.00;99.90;;;;;;5029757;28;20163;-81
2023/07/17 09:50:01;;;;;;;10.20;2.70;;;21.10;99.90;;;;;;5018909;28;20096;-81
2023/07/17 09:52:31;;;;;;;9.50;2.45;;;21.30;99.90;;;;;;5030567;28;20148;-80
2023/07/17 09:55:00;;;;;;;7.53;2.35;;;21.30;99.90;;;;;;5006102;28;20093;-81
2023/07/17 09:57:36;;;;;;;9.05;2.60;;;21.40;99.90;;;;;;5019891;28;20192;-81
2023/07/17 10:00:12;;;;;;;9.38;2.85;;;21.40;99.90;;;;;;5033296;28;20175;-80
2023/07/17 10:02:53;;;;;;;8.00;2.30;;;21.50;99.90;;;;;;5012551;28;20389;-80
2023/07/17 10:05:20;;;;;;;7.00;2.40;;;21.50;99.90;;;;;;5035068;28;20120;-80
2023/07/17 10:07:48;;;;;;;9.45;2.30;;;21.50;99.90;;;;;;5030798;28;20297;-81
2023/07/17 10:10:14;;;;;;;10.07;2.45;;;21.50;99.90;;;;;;5014256;28;20049;-81
2023/07/17 10:12:41;;;;;;;10.63;2.67;;;21.20;99.90;;;;;;5014677;28;20596;-81
2023/07/17 10:15:08;;;;;;;9.20;2.75;;;21.00;99.90;;;;;;4995738;28;20049;-81
2023/07/17 10:17:35;;;;;;;9.80;2.45;;;20.90;99.90;;;;;;5023083;28;20148;-81
2023/07/17 10:20:12;;;;;;;10.23;3.13;;;21.10;99.90;;;;;;5032575;28;20041;-82
2023/07/17 10:22:44;;;;;;;8.27;2.65;;;21.00;99.90;;;;;;5025478;28;20301;-81
2023/07/17 10:25:18;;;;;;;9.77;2.53;;;20.90;99.90;;;;;;5027514;28;20037;-81
2023/07/17 10:27:51;;;;;;;10.52;2.58;;;21.00;99.90;;;;;;5032632;28;20030;-81
2023/07/17 10:30:23;;;;;;;10.75;2.70;;;21.20;99.90;;;;;;5025050;28;20064;-82
2023/07/17 10:33:04;;;;;;;8.25;2.50;;;21.60;99.90;;;;;;5028556;28;20045;-82
2023/07/17 10:35:43;;;;;;;8.02;2.30;;;22.00;99.90;;;;;;5024350;28;20039;-80
2023/07/17 10:38:10;;;;;;;9.48;2.35;;;22.00;99.90;;;;;;5024095;28;20315;-81
2023/07/17 10:40:35;;;;;;;8.32;2.28;;;22.10;99.90;;;;;;5029149;28;20045;-82
2023/07/17 10:43:15;;;;;;;10.60;2.20;;;22.00;99.90;;;;;;5019745;28;20040;-81
2023/07/17 10:45:41;;;;;;;9.05;2.30;;;22.10;99.90;;;;;;5032315;28;20060;-81
2023/07/17 10:48:07;;;;;;;7.43;2.58;;;22.10;99.90;;;;;;5027589;28;20373;-83
2023/07/17 10:50:33;;;;;;;10.98;2.70;;;22.10;99.90;;;;;;5017851;28;20049;-83
2023/07/17 10:53:04;;;;;;;8.10;2.20;;;22.10;99.90;;;;;;5052221;28;20042;-83
2023/07/17 10:55:31;;;;;;;8.32;2.35;;;22.10;99.90;;;;;;5001702;28;20030;-83
2023/07/17 10:57:58;;;;;;;8.98;2.40;;;22.00;99.90;;;;;;5034914;28;20033;-83
2023/07/17 11:00:25;;;;;;;9.25;2.33;;;22.00;99.90;;;;;;5004815;28;20249;-83
2023/07/17 11:02:50;;;;;;;8.93;2.33;;;21.90;99.90;;;;;;5024242;28;20071;-84
2023/07/17 11:05:16;;;;;;;8.90;2.40;;;21.70;99.90;;;;;;5015790;28;20053;-83
2023/07/17 11:07:42;;;;;;;8.98;2.40;;;21.60;99.90;;;;;;4997402;28;20037;-83
2023/07/17 11:10:12;;;;;;;9.43;2.55;;;21.50;99.90;;;;;;5033655;28;20060;-82
2023/07/17 11:12:42;;;;;;;8.38;2.50;;;21.50;99.90;;;;;;5031270;28;20591;-83
2023/07/17 11:15:18;;;;;;;7.78;2.58;;;21.40;99.90;;;;;;5014338;28;20088;-82
2023/07/17 11:17:45;;;;;;;8.73;2.88;;;21.40;99.90;;;;;;5032524;28;20044;-83
2023/07/17 11:20:12;;;;;;;7.30;2.17;;;21.40;99.90;;;;;;5017335;28;20037;-82
2023/07/17 11:22:40;;;;;;;6.75;2.30;;;21.40;99.90;;;;;;5019272;28;21206;-82
2023/07/17 11:25:13;;;;;;;9.02;2.40;;;21.40;99.90;;;;;;5029688;28;20050;-82
2023/07/17 11:27:40;;;;;;;6.72;2.20;;;21.70;99.90;;;;;;5025547;28;20033;-82
2023/07/17 11:30:29;;;;;;;8.52;2.65;;;21.50;99.90;;;;;;5030995;28;20052;-82
2023/07/17 11:32:58;;;;;;;8.13;2.40;;;21.90;99.90;;;;;;5035192;28;20183;-83
2023/07/17 11:35:39;;;;;;;8.25;2.50;;;22.10;99.90;;;;;;5010401;28;20025;-81
2023/07/17 11:38:06;;;;;;;9.55;2.38;;;22.20;99.90;;;;;;5009519;28;20033;-82
2023/07/17 11:40:31;;;;;;;7.70;2.47;;;22.10;99.90;;;;;;5028184;28;20674;-82
2023/07/17 11:43:06;;;;;;;8.25;2.50;;;22.00;99.90;;;;;;4997792;28;20037;-80
2023/07/17 11:45:32;;;;;;;9.48;2.50;;;22.50;99.90;;;;;;5008310;28;20052;-81
2023/07/17 11:47:57;;;;;;;6.93;2.33;;;22.50;99.90;;;;;;4986682;28;20556;-81
2023/07/17 11:50:26;;;;;;;9.43;2.40;;;22.40;99.90;;;;;;5027681;28;20022;-81
2023/07/17 11:53:05;;;;;;;7.93;2.60;;;22.10;99.90;;;;;;5025056;28;20105;-81
2023/07/17 11:55:38;;;;;;;8.38;2.33;;;21.90;99.90;;;;;;5015398;28;20026;-81
2023/07/17 11:58:16;;;;;;;;;;;21.70;99.90;;;;;;5036593;28;20065;-81
2023/07/17 12:00:46;;;;;;;9.65;2.67;;;21.40;99.90;;;;;;5036959;28;19931;-81
2023/07/17 12:03:12;;;;;;;7.32;2.13;;;21.20;99.90;;;;;;5019381;28;20279;-81
2023/07/17 12:05:39;;;;;;;7.63;2.13;;;21.20;99.90;;;;;;5036225;28;20036;-80
2023/07/17 12:08:05;;;;;;;8.07;2.30;;;21.40;99.90;;;;;;5037088;28;20056;-80
2023/07/17 12:10:32;;;;;;;8.85;2.35;;;21.90;99.90;;;;;;5016126;28;20061;-81
2023/07/17 12:12:58;;;;;;;5.68;1.80;;;22.00;99.90;;;;;;5004789;28;20021;-80
2023/07/17 12:15:25;;;;;;;7.10;2.20;;;22.20;99.90;;;;;;5019606;28;20025;-80
2023/07/17 12:17:51;;;;;;;7.88;2.13;;;22.70;99.90;;;;;;5036646;28;20057;-81
2023/07/17 12:20:20;;;;;;;9.02;2.05;;;22.90;99.90;;;;;;5035673;28;20160;-80
2023/07/17 12:22:48;;;;;;;7.22;2.10;;;22.90;99.90;;;;;;5015469;28;20283;-80
2023/07/17 12:25:14;;;;;;;8.80;2.38;;;23.10;99.90;;;;;;5038669;28;20287;-80
2023/07/17 12:27:40;;;;;;;7.53;2.00;;;23.00;99.90;;;;;;5004143;28;20038;-81
2023/07/17 12:30:07;;;;;;;8.18;2.00;;;22.70;99.90;;;;;;5004410;28;20144;-81
2023/07/17 12:32:33;;;;;;;7.70;2.38;;;22.30;99.90;;;;;;5037367;28;20116;-81
2023/07/17 12:34:58;;;;;;;6.93;2.17;;;22.00;99.90;;;;;;5032048;28;20183;-81
2023/07/17 12:37:24;;;;;;;7.80;2.25;;;21.90;99.90;;;;;;5031206;28;20042;-81
2023/07/17 12:39:50;;;;;;;8.65;2.28;;;22.00;99.90;;;;;;5013554;28;20033;-81